createdAt,value
2022-12-23T00:00:23.060Z,7.56
2022-12-23T00:01:23.037Z,7.59
2022-12-23T00:02:22.940Z,7.63
2022-12-23T00:03:23.384Z,7.52
2022-12-23T00:04:23.056Z,7.49
2022-12-23T00:05:22.936Z,7.64
2022-12-23T00:06:22.915Z,7.49
2022-12-23T00:07:22.921Z,7.55
2022-12-23T00:08:22.623Z,7.54
2022-12-23T00:09:22.867Z,7.52
2022-12-23T00:10:22.844Z,7.52
2022-12-23T00:11:22.346Z,7.51
2022-12-23T00:12:22.823Z,7.51
2022-12-23T00:13:22.576Z,7.58
2022-12-23T00:14:26.155Z,7.56
2022-12-23T00:15:22.775Z,7.55
2022-12-23T00:16:22.763Z,7.55
2022-12-23T00:17:27.452Z,7.49
2022-12-23T00:18:22.751Z,7.49
2022-12-23T00:19:22.515Z,7.49
2022-12-23T00:20:22.452Z,7.55
2022-12-23T00:21:22.698Z,7.54
2022-12-23T00:22:22.416Z,7.49
2022-12-23T00:23:22.444Z,7.61
2022-12-23T00:24:22.649Z,7.56
2022-12-23T00:25:22.395Z,7.54
2022-12-23T00:26:22.383Z,7.58
2022-12-23T00:27:22.366Z,7.55
2022-12-23T00:28:22.348Z,7.56
2022-12-23T00:29:22.564Z,7.49
2022-12-23T00:30:22.566Z,7.47
2022-12-23T00:31:22.762Z,7.54
2022-12-23T00:32:22.903Z,7.58
2022-12-23T00:33:22.521Z,7.49
2022-12-23T00:34:22.510Z,7.61
2022-12-23T00:35:22.233Z,7.51
2022-12-23T00:36:22.553Z,7.52
2022-12-23T00:37:22.204Z,7.61
2022-12-23T00:38:22.180Z,7.64
2022-12-23T00:39:22.456Z,7.58
2022-12-23T00:40:22.400Z,7.61
2022-12-23T00:41:22.748Z,7.59
2022-12-23T00:42:22.749Z,7.55
2022-12-23T00:43:23.003Z,7.56
2022-12-23T00:44:22.725Z,7.63
2022-12-23T00:45:22.704Z,7.58
2022-12-23T00:46:22.948Z,7.52
2022-12-23T00:47:22.405Z,7.52
2022-12-23T00:48:22.824Z,7.49
2022-12-23T00:49:22.904Z,7.56
2022-12-23T00:50:22.870Z,7.56
2022-12-23T00:51:22.859Z,7.41
2022-12-23T00:52:22.607Z,7.47
2022-12-23T00:53:22.871Z,7.47
2022-12-23T00:54:22.564Z,7.48
2022-12-23T00:55:22.589Z,7.54
2022-12-23T00:56:22.528Z,7.52
2022-12-23T00:57:22.521Z,7.47
2022-12-23T00:58:22.822Z,7.47
2022-12-23T00:59:22.751Z,7.49
2022-12-23T01:00:22.721Z,7.51
2022-12-23T01:01:23.053Z,7.54
2022-12-23T01:02:23.204Z,7.55
2022-12-23T01:03:22.648Z,7.61
2022-12-23T01:04:22.477Z,7.49
2022-12-23T01:05:22.649Z,7.48
2022-12-23T01:06:22.376Z,7.51
2022-12-23T01:07:22.403Z,7.47
2022-12-23T01:08:22.370Z,7.63
2022-12-23T01:09:22.614Z,7.51
2022-12-23T01:10:22.568Z,7.49
2022-12-23T01:11:22.342Z,7.47
2022-12-23T01:12:22.581Z,7.47
2022-12-23T01:13:22.043Z,7.51
2022-12-23T01:14:22.286Z,7.54
2022-12-23T01:15:22.279Z,7.44
2022-12-23T01:16:22.911Z,7.45
2022-12-23T01:17:22.580Z,7.45
2022-12-23T01:18:22.215Z,7.54
2022-12-23T01:19:22.189Z,7.51
2022-12-23T01:20:22.496Z,7.41
2022-12-23T01:21:21.939Z,7.49
2022-12-23T01:22:22.164Z,7.54
2022-12-23T01:23:22.135Z,7.52
2022-12-23T01:24:22.128Z,7.49
2022-12-23T01:25:22.378Z,7.47
2022-12-23T01:26:22.100Z,7.49
2022-12-23T01:27:22.101Z,7.37
2022-12-23T01:28:22.327Z,7.48
2022-12-23T01:29:22.053Z,7.56
2022-12-23T01:30:22.041Z,7.4
2022-12-23T01:31:22.407Z,7.49
2022-12-23T01:32:22.455Z,7.41
2022-12-23T01:33:22.366Z,7.45
2022-12-23T01:34:22.250Z,7.51
2022-12-23T01:35:22.210Z,7.41
2022-12-23T01:36:21.992Z,7.51
2022-12-23T01:37:22.188Z,7.44
2022-12-23T01:38:21.922Z,7.49
2022-12-23T01:40:22.151Z,7.54
2022-12-23T01:41:22.142Z,7.47
2022-12-23T01:42:21.918Z,7.49
2022-12-23T01:43:21.854Z,7.49
2022-12-23T01:44:21.851Z,7.48
2022-12-23T01:45:21.898Z,7.54
2022-12-23T01:46:22.192Z,7.44
2022-12-23T01:47:21.793Z,7.49
2022-12-23T01:48:22.053Z,7.49
2022-12-23T01:49:21.766Z,7.47
2022-12-23T01:50:21.999Z,7.44
2022-12-23T01:51:21.992Z,7.54
2022-12-23T01:52:22.029Z,7.45
2022-12-23T01:53:21.969Z,7.51
2022-12-23T01:54:21.941Z,7.47
2022-12-23T01:55:21.664Z,7.49
2022-12-23T01:56:21.663Z,7.41
2022-12-23T01:57:21.891Z,7.49
2022-12-23T01:58:21.633Z,7.51
2022-12-23T01:59:21.987Z,7.48
2022-12-23T02:00:21.875Z,7.41
2022-12-23T02:01:21.864Z,7.49
2022-12-23T02:02:22.368Z,7.44
2022-12-23T02:03:21.949Z,7.39
2022-12-23T02:04:21.810Z,7.4
2022-12-23T02:05:21.788Z,7.48
2022-12-23T02:06:21.513Z,7.37
2022-12-23T02:07:21.496Z,7.39
2022-12-23T02:08:21.537Z,7.44
2022-12-23T02:09:21.456Z,7.44
2022-12-23T02:10:21.448Z,7.37
2022-12-23T02:11:21.685Z,7.49
2022-12-23T02:12:21.458Z,7.37
2022-12-23T02:13:21.693Z,7.34
2022-12-23T02:14:21.393Z,7.44
2022-12-23T02:15:21.668Z,7.4
2022-12-23T02:16:21.693Z,7.39
2022-12-23T02:17:21.706Z,7.34
2022-12-23T02:18:21.592Z,7.41
2022-12-23T02:19:21.328Z,7.41
2022-12-23T02:20:21.563Z,7.34
2022-12-23T02:21:21.549Z,7.33
2022-12-23T02:22:21.302Z,7.33
2022-12-23T02:23:21.519Z,7.23
2022-12-23T02:24:21.548Z,7.3
2022-12-23T02:25:21.553Z,7.22
2022-12-23T02:26:21.213Z,7.22
2022-12-23T02:27:21.214Z,7.26
2022-12-23T02:28:21.196Z,7.23
2022-12-23T02:29:21.440Z,7.31
2022-12-23T02:30:21.436Z,7.3
2022-12-23T02:31:21.605Z,7.36
2022-12-23T02:32:21.129Z,7.29
2022-12-23T02:33:21.106Z,7.26
2022-12-23T02:34:21.378Z,7.36
2022-12-23T02:35:21.078Z,7.31
2022-12-23T02:36:21.314Z,7.3
2022-12-23T02:37:21.068Z,7.31
2022-12-23T02:38:21.313Z,7.37
2022-12-23T02:39:21.019Z,7.3
2022-12-23T02:40:21.310Z,7.31
2022-12-23T02:41:21.000Z,7.39
2022-12-23T02:42:21.256Z,7.39
2022-12-23T02:43:21.215Z,7.39
2022-12-23T02:44:20.937Z,7.36
2022-12-23T02:45:21.185Z,7.4
2022-12-23T02:46:21.115Z,7.37
2022-12-23T02:47:21.201Z,7.39
2022-12-23T02:48:20.883Z,7.37
2022-12-23T02:49:20.628Z,7.41
2022-12-23T02:50:21.125Z,7.4
2022-12-23T02:51:20.603Z,7.4
2022-12-23T02:52:21.111Z,7.41
2022-12-23T02:53:21.080Z,7.39
2022-12-23T02:54:20.804Z,7.4
2022-12-23T02:55:20.528Z,7.41
2022-12-23T02:56:21.069Z,7.47
2022-12-23T02:57:21.058Z,7.36
2022-12-23T02:58:20.471Z,7.33
2022-12-23T02:59:21.005Z,7.39
2022-12-23T03:00:20.963Z,7.31
2022-12-23T03:01:21.066Z,7.36
2022-12-23T03:02:21.843Z,7.39
2022-12-23T03:03:21.459Z,7.4
2022-12-23T03:04:20.923Z,7.39
2022-12-23T03:05:20.376Z,7.45
2022-12-23T03:06:20.620Z,7.41
2022-12-23T03:07:23.314Z,7.51
2022-12-23T03:08:21.055Z,7.52
2022-12-23T03:09:20.834Z,7.41
2022-12-23T03:10:20.876Z,7.39
2022-12-23T03:11:20.540Z,7.4
2022-12-23T03:12:20.853Z,7.4
2022-12-23T03:13:20.770Z,7.48
2022-12-23T03:14:20.499Z,7.37
2022-12-23T03:15:20.753Z,7.39
2022-12-23T03:16:20.450Z,7.54
2022-12-23T03:17:20.735Z,7.49
2022-12-23T03:18:20.698Z,7.45
2022-12-23T03:19:20.468Z,7.47
2022-12-23T03:20:20.427Z,7.47
2022-12-23T03:21:20.406Z,7.4
2022-12-23T03:22:20.639Z,7.47
2022-12-23T03:23:20.638Z,7.44
2022-12-23T03:24:20.627Z,7.4
2022-12-23T03:25:20.594Z,7.4
2022-12-23T03:26:20.320Z,7.44
2022-12-23T03:27:20.311Z,7.51
2022-12-23T03:28:20.381Z,7.37
2022-12-23T03:29:20.014Z,7.41
2022-12-23T03:30:20.541Z,7.45
2022-12-23T03:31:20.669Z,7.39
2022-12-23T03:32:20.243Z,7.44
2022-12-23T03:33:20.220Z,7.41
2022-12-23T03:49:53.364Z,7.37
2022-12-23T03:50:53.016Z,7.36
2022-12-23T03:51:53.241Z,7.31
2022-12-23T03:52:52.995Z,7.36
2022-12-23T03:53:52.967Z,7.29
2022-12-23T03:54:53.198Z,7.34
2022-12-23T03:55:54.280Z,7.34
2022-12-23T03:56:52.661Z,7.29
2022-12-23T03:57:53.147Z,7.3
2022-12-23T03:58:53.136Z,7.3
2022-12-23T03:59:53.187Z,7.22
2022-12-23T04:00:53.114Z,7.22
2022-12-23T04:01:53.663Z,7.26
2022-12-23T04:02:53.615Z,7.23
2022-12-23T04:03:53.225Z,7.23
2022-12-23T04:04:52.526Z,7.27
2022-12-23T04:05:53.147Z,7.27
2022-12-23T04:06:53.006Z,7.21
2022-12-23T04:07:53.017Z,7.26
2022-12-23T04:08:52.480Z,7.21
2022-12-23T04:09:52.694Z,7.23
2022-12-23T04:10:52.717Z,7.16
2022-12-23T04:11:52.940Z,7.18
2022-12-23T04:12:52.904Z,7.23
2022-12-23T04:13:52.655Z,7.21
2022-12-23T04:14:52.892Z,7.18
2022-12-23T04:15:53.044Z,7.21
2022-12-23T04:16:52.350Z,7.19
2022-12-23T04:17:52.858Z,7.26
2022-12-23T04:18:52.806Z,7.21
2022-12-23T04:19:52.820Z,7.18
2022-12-23T04:20:52.548Z,7.18
2022-12-23T04:21:52.882Z,7.21
2022-12-23T04:22:52.772Z,7.22
2022-12-23T04:23:52.749Z,7.16
2022-12-23T04:24:52.481Z,7.16
2022-12-23T04:25:52.467Z,7.26
2022-12-23T04:26:52.698Z,7.15
2022-12-23T04:27:52.689Z,7.19
2022-12-23T04:28:53.032Z,7.27
2022-12-23T04:29:53.026Z,7.19
2022-12-23T04:30:53.257Z,7.22
2022-12-23T04:31:53.436Z,7.26
2022-12-23T04:32:52.979Z,7.22
2022-12-23T04:33:53.227Z,7.22
2022-12-23T04:34:52.954Z,7.29
2022-12-23T04:35:52.944Z,7.22
2022-12-23T04:36:52.925Z,7.16
2022-12-23T04:37:53.295Z,7.21
2022-12-23T04:38:53.153Z,7.29
2022-12-23T04:39:52.882Z,7.21
2022-12-23T04:40:53.123Z,7.12
2022-12-23T04:41:52.876Z,7.21
2022-12-23T04:42:52.841Z,7.26
2022-12-23T04:43:58.141Z,7.21
2022-12-23T04:44:53.046Z,7.21
2022-12-23T04:45:52.803Z,7.26
2022-12-23T04:46:52.967Z,7.22
2022-12-23T04:47:52.764Z,7.27
2022-12-23T04:48:53.005Z,7.27
2022-12-23T04:49:52.719Z,7.23
2022-12-23T04:50:52.708Z,7.22
2022-12-23T04:51:52.946Z,7.23
2022-12-23T04:52:52.945Z,7.18
2022-12-23T04:53:52.999Z,7.18
2022-12-23T04:54:52.932Z,7.19
2022-12-23T04:55:52.654Z,7.21
2022-12-23T04:56:52.915Z,7.16
2022-12-23T04:57:52.598Z,7.23
2022-12-23T04:58:52.608Z,7.27
2022-12-23T04:59:52.594Z,7.21
2022-12-23T05:00:52.721Z,7.19
2022-12-23T05:01:53.589Z,7.19
2022-12-23T05:02:53.072Z,7.22
2022-12-23T05:03:52.281Z,7.22
2022-12-23T05:04:52.515Z,7.23
2022-12-23T05:05:52.492Z,7.23
2022-12-23T05:06:52.498Z,7.23
2022-12-23T05:07:52.458Z,7.26
2022-12-23T05:08:52.445Z,7.23
2022-12-23T05:09:52.957Z,7.37
2022-12-23T05:10:52.426Z,7.36
2022-12-23T05:11:52.655Z,7.36
2022-12-23T05:12:52.420Z,7.27
2022-12-23T05:13:52.372Z,7.34
2022-12-23T05:14:52.122Z,7.37
2022-12-23T05:15:52.481Z,7.39
2022-12-23T05:16:52.695Z,7.27
2022-12-23T05:17:52.065Z,7.36
2022-12-23T05:18:52.308Z,7.33
2022-12-23T05:19:52.049Z,7.33
2022-12-23T05:20:52.574Z,7.36
2022-12-23T05:21:52.510Z,7.31
2022-12-23T05:22:52.498Z,7.37
2022-12-23T05:23:52.475Z,7.31
2022-12-23T05:24:52.220Z,7.29
2022-12-23T05:25:52.646Z,7.3
2022-12-23T05:27:01.662Z,7.36
2022-12-23T05:27:52.191Z,7.29
2022-12-23T05:28:52.164Z,7.33
2022-12-23T05:29:52.134Z,7.36
2022-12-23T05:30:52.145Z,7.37
2022-12-23T05:31:52.685Z,7.36
2022-12-23T05:32:52.372Z,7.37
2022-12-23T05:33:52.109Z,7.37
2022-12-23T05:34:52.325Z,7.37
2022-12-23T05:35:52.076Z,7.37
2022-12-23T05:36:52.310Z,7.36
2022-12-23T05:37:52.375Z,7.3
2022-12-23T05:38:52.005Z,7.27
2022-12-23T05:39:52.312Z,7.3
2022-12-23T05:40:52.101Z,7.36
2022-12-23T05:41:52.287Z,7.34
2022-12-23T05:42:52.191Z,7.33
2022-12-23T05:43:51.945Z,7.34
2022-12-23T05:44:52.200Z,7.36
2022-12-23T05:45:52.356Z,7.3
2022-12-23T05:46:52.176Z,7.37
2022-12-23T05:47:52.468Z,7.31
2022-12-23T05:48:51.892Z,7.3
2022-12-23T05:49:52.106Z,7.4
2022-12-23T05:50:52.072Z,7.37
2022-12-23T05:51:52.075Z,7.36
2022-12-23T05:52:51.558Z,7.34
2022-12-23T05:53:51.580Z,7.34
2022-12-23T05:54:52.025Z,7.39
2022-12-23T05:55:51.760Z,7.4
2022-12-23T05:56:52.477Z,7.4
2022-12-23T05:57:52.455Z,7.41
2022-12-23T05:58:52.191Z,7.34
2022-12-23T05:59:51.964Z,7.44
2022-12-23T06:00:51.932Z,7.4
2022-12-23T06:01:51.820Z,7.54
2022-12-23T06:02:58.884Z,7.34
2022-12-23T06:03:52.338Z,7.36
2022-12-23T06:04:51.627Z,7.34
2022-12-23T06:05:51.610Z,7.39
2022-12-23T06:06:51.870Z,7.45
2022-12-23T06:07:51.617Z,7.41
2022-12-23T06:08:59.904Z,7.47
2022-12-23T06:09:51.563Z,7.47
2022-12-23T06:10:51.813Z,7.52
2022-12-23T06:11:51.529Z,7.44
2022-12-23T06:12:51.764Z,7.37
2022-12-23T06:13:51.827Z,7.51
2022-12-23T06:14:51.470Z,7.48
2022-12-23T06:15:51.494Z,7.45
2022-12-23T06:16:52.007Z,7.51
2022-12-23T06:17:51.703Z,7.47
2022-12-23T06:18:51.694Z,7.41
2022-12-23T06:19:51.675Z,7.48
2022-12-23T06:20:51.670Z,7.48
2022-12-23T06:21:51.622Z,7.54
2022-12-23T06:22:51.397Z,7.54
2022-12-23T06:23:51.603Z,7.55
2022-12-23T06:24:51.591Z,7.45
2022-12-23T06:25:51.571Z,7.52
2022-12-23T06:26:59.215Z,7.47
2022-12-23T06:27:51.550Z,7.49
2022-12-23T06:28:51.559Z,7.49
2022-12-23T06:29:51.597Z,7.54
2022-12-23T06:30:50.987Z,7.47
2022-12-23T06:31:51.203Z,7.48
2022-12-23T06:32:51.478Z,7.52
2022-12-23T06:33:51.471Z,7.51
2022-12-23T06:34:51.235Z,7.52
2022-12-23T06:35:51.417Z,7.49
2022-12-23T06:36:51.452Z,7.55
2022-12-23T06:37:51.413Z,7.54
2022-12-23T06:38:51.410Z,7.58
2022-12-23T06:39:51.112Z,7.59
2022-12-23T06:40:50.875Z,7.54
2022-12-23T06:41:50.840Z,7.63
2022-12-23T06:42:51.115Z,7.56
2022-12-23T06:43:57.120Z,7.64
2022-12-23T06:44:51.314Z,7.63
2022-12-23T06:45:51.605Z,7.49
2022-12-23T06:46:51.013Z,7.58
2022-12-23T06:47:51.004Z,7.58
2022-12-23T06:48:51.249Z,7.63
2022-12-23T06:49:51.276Z,7.67
2022-12-23T06:50:50.987Z,7.64
2022-12-23T06:51:50.688Z,7.61
2022-12-23T06:52:50.923Z,7.58
2022-12-23T06:53:51.200Z,7.56
2022-12-23T06:54:50.933Z,7.63
2022-12-23T06:55:51.136Z,7.56
2022-12-23T06:56:51.133Z,7.67
2022-12-23T06:57:50.860Z,7.64
2022-12-23T06:58:50.829Z,7.64
2022-12-23T06:59:50.823Z,7.58
2022-12-23T07:00:51.276Z,7.59
2022-12-23T07:01:51.610Z,7.68
2022-12-23T07:02:51.166Z,7.56
2022-12-23T07:03:50.896Z,7.58
2022-12-23T07:04:50.766Z,7.59
2022-12-23T07:05:50.743Z,7.58
2022-12-23T07:06:50.771Z,7.67
2022-12-23T07:07:50.705Z,7.58
2022-12-23T07:08:50.950Z,7.71
2022-12-23T07:09:50.940Z,7.58
2022-12-23T07:10:50.933Z,7.58
2022-12-23T07:11:50.915Z,7.63
2022-12-23T07:12:55.435Z,7.68
2022-12-23T07:13:50.627Z,7.73
2022-12-23T07:14:50.882Z,7.64
2022-12-23T07:15:50.597Z,7.63
2022-12-23T07:16:51.170Z,7.67
2022-12-23T07:17:50.918Z,7.73
2022-12-23T07:18:50.816Z,7.71
2022-12-23T07:19:50.558Z,7.82
2022-12-23T07:20:50.775Z,7.77
2022-12-23T07:21:50.503Z,7.8
2022-12-23T07:22:50.789Z,7.77
2022-12-23T07:23:50.768Z,7.73
2022-12-23T07:24:50.739Z,7.77
2022-12-23T07:25:50.451Z,7.77
2022-12-23T07:26:50.188Z,7.83
2022-12-23T07:27:50.427Z,7.8
2022-12-23T07:28:50.402Z,7.83
2022-12-23T07:29:50.682Z,7.78
2022-12-23T07:30:50.394Z,7.83
2022-12-23T07:31:50.978Z,7.83
2022-12-23T07:32:50.092Z,7.74
2022-12-23T07:33:50.699Z,7.8
2022-12-23T07:34:50.335Z,7.78
2022-12-23T07:35:50.572Z,7.78
2022-12-23T07:36:50.564Z,7.77
2022-12-23T07:37:50.529Z,7.8
2022-12-23T07:38:50.280Z,7.86
2022-12-23T07:39:50.248Z,7.77
2022-12-23T07:40:50.493Z,7.75
2022-12-23T07:41:55.532Z,7.77
2022-12-23T07:42:52.892Z,7.8
2022-12-23T07:43:52.647Z,7.77
2022-12-23T07:44:52.617Z,7.8
2022-12-23T07:46:02.741Z,7.8
2022-12-23T07:46:52.954Z,7.78
2022-12-23T07:47:52.924Z,7.88
2022-12-23T07:48:52.696Z,7.77
2022-12-23T07:49:53.193Z,7.75
2022-12-23T07:50:53.125Z,7.78
2022-12-23T07:51:53.127Z,7.8
2022-12-23T07:52:53.113Z,7.77
2022-12-23T07:53:53.080Z,7.85
2022-12-23T07:54:53.049Z,7.77
2022-12-23T07:56:00.698Z,7.78
2022-12-23T07:56:53.024Z,7.75
2022-12-23T07:57:52.796Z,7.85
2022-12-23T07:58:52.741Z,7.8
2022-12-23T07:59:52.968Z,7.8
2022-12-23T08:00:52.717Z,7.78
2022-12-23T08:01:53.317Z,7.8
2022-12-23T08:02:53.445Z,7.82
2022-12-23T08:03:53.093Z,7.8
2022-12-23T08:04:53.110Z,7.88
2022-12-23T08:05:53.089Z,7.92
2022-12-23T08:06:52.635Z,7.85
2022-12-23T08:07:52.969Z,7.93
2022-12-23T08:08:53.215Z,7.92
2022-12-23T08:09:52.952Z,7.89
2022-12-23T08:10:53.341Z,7.89
2022-12-23T08:11:53.413Z,7.98
2022-12-23T08:12:53.417Z,7.82
2022-12-23T08:13:53.394Z,7.91
2022-12-23T08:14:53.389Z,7.91
2022-12-23T08:15:53.365Z,7.88
2022-12-23T08:16:53.303Z,7.89
2022-12-23T08:17:53.365Z,7.89
2022-12-23T08:18:52.817Z,7.86
2022-12-23T08:19:53.307Z,7.89
2022-12-23T08:20:53.310Z,7.86
2022-12-23T08:21:53.434Z,7.86
2022-12-23T08:22:53.272Z,7.85
2022-12-23T08:23:53.267Z,7.89
2022-12-23T08:24:53.254Z,7.92
2022-12-23T08:25:53.013Z,7.91
2022-12-23T08:26:53.289Z,7.89
2022-12-23T08:27:52.943Z,7.75
2022-12-23T08:28:52.935Z,7.77
2022-12-23T08:29:53.179Z,7.83
2022-12-23T08:30:53.161Z,7.67
2022-12-23T08:31:52.883Z,7.67
2022-12-23T08:32:53.134Z,7.59
2022-12-23T08:33:53.114Z,7.58
2022-12-23T08:34:53.090Z,7.51
2022-12-23T08:35:52.838Z,7.54
2022-12-23T08:36:52.820Z,7.47
2022-12-23T08:37:53.130Z,7.49
2022-12-23T08:38:52.841Z,7.45
2022-12-23T08:39:52.994Z,7.51
2022-12-23T08:40:53.031Z,7.47
2022-12-23T08:41:52.758Z,7.52
2022-12-23T08:42:52.481Z,7.59
2022-12-23T08:43:53.035Z,7.63
2022-12-23T08:44:52.727Z,7.85
2022-12-23T08:45:52.652Z,7.75
2022-12-23T08:46:52.948Z,7.96
2022-12-23T08:47:52.895Z,7.99
2022-12-23T08:48:54.235Z,8.14
2022-12-23T08:49:52.634Z,8.11
2022-12-23T08:50:52.647Z,8.21
2022-12-23T08:51:52.597Z,8.19
2022-12-23T08:52:52.845Z,8.24
2022-12-23T08:54:00.773Z,8.22
2022-12-23T08:54:52.850Z,8.21
2022-12-23T08:55:52.804Z,8.34
2022-12-23T08:56:52.530Z,8.24
2022-12-23T08:57:52.511Z,8.32
2022-12-23T08:58:52.521Z,8.25
2022-12-23T08:59:52.738Z,8.29
2022-12-23T09:00:52.795Z,8.28
2022-12-23T09:01:53.674Z,8.35
2022-12-23T09:02:52.992Z,8.29
2022-12-23T09:03:52.705Z,8.4
2022-12-23T09:04:52.423Z,8.34
2022-12-23T09:05:52.650Z,8.36
2022-12-23T09:06:52.646Z,8.36
2022-12-23T09:07:52.662Z,8.34
2022-12-23T09:08:52.614Z,8.36
2022-12-23T09:09:52.685Z,8.29
2022-12-23T09:10:52.072Z,8.39
2022-12-23T09:11:52.332Z,8.39
2022-12-23T09:12:52.551Z,8.36
2022-12-23T09:13:52.047Z,8.35
2022-12-23T09:14:52.585Z,8.35
2022-12-23T09:15:52.785Z,8.32
2022-12-23T09:16:52.281Z,8.29
2022-12-23T09:17:52.484Z,8.35
2022-12-23T09:18:52.220Z,8.35
2022-12-23T09:19:57.500Z,8.36
2022-12-23T09:20:52.443Z,8.35
2022-12-23T09:21:52.467Z,8.36
2022-12-23T09:22:52.178Z,8.31
2022-12-23T09:23:52.191Z,8.43
2022-12-23T09:24:52.391Z,8.43
2022-12-23T09:25:52.465Z,8.47
2022-12-23T09:26:52.407Z,8.44
2022-12-23T09:27:52.348Z,8.52
2022-12-23T09:28:52.342Z,8.47
2022-12-23T09:29:52.316Z,8.5
2022-12-23T09:30:52.288Z,8.49
2022-12-23T09:31:52.265Z,8.49
2022-12-23T09:32:52.280Z,8.47
2022-12-23T09:33:52.296Z,8.5
2022-12-23T09:34:52.260Z,8.42
2022-12-23T09:35:51.769Z,8.53
2022-12-23T09:36:59.695Z,8.54
2022-12-23T09:37:51.959Z,8.61
2022-12-23T09:38:52.224Z,8.67
2022-12-23T09:39:51.966Z,8.62
2022-12-23T09:40:51.690Z,8.72
2022-12-23T09:41:52.319Z,8.8
2022-12-23T09:42:51.658Z,8.72
2022-12-23T09:43:51.908Z,8.86
2022-12-23T09:44:52.122Z,8.92
2022-12-23T09:45:52.116Z,9.01
2022-12-23T09:46:52.295Z,8.98
2022-12-23T09:47:51.832Z,9.05
2022-12-23T09:48:52.088Z,9.04
2022-12-23T09:49:52.072Z,9.01
2022-12-23T09:50:51.555Z,9.01
2022-12-23T09:51:51.766Z,9.04
2022-12-23T09:52:52.019Z,9.03
2022-12-23T09:53:51.492Z,9.03
2022-12-23T09:54:51.981Z,9.04
2022-12-23T09:55:52.454Z,9.11
2022-12-23T09:56:51.966Z,9.12
2022-12-23T09:57:52.047Z,9.12
2022-12-23T09:58:51.670Z,9.04
2022-12-23T09:59:51.969Z,9.12
2022-12-23T10:00:51.909Z,9.11
2022-12-23T10:01:52.381Z,9.11
2022-12-23T10:02:52.558Z,9.14
2022-12-23T10:03:52.582Z,9
2022-12-23T10:04:51.856Z,8.98
2022-12-23T10:05:51.602Z,9.01
2022-12-23T10:06:53.973Z,9
2022-12-23T10:07:51.573Z,9
2022-12-23T10:08:51.829Z,9.04
2022-12-23T10:09:51.588Z,9.01
2022-12-23T10:10:51.771Z,9
2022-12-23T10:11:51.542Z,8.97
2022-12-23T10:12:51.782Z,9.03
2022-12-23T10:13:51.843Z,8.98
2022-12-23T10:14:51.747Z,9.01
2022-12-23T10:15:51.870Z,8.98
2022-12-23T10:16:51.802Z,9.04
2022-12-23T10:17:51.673Z,8.98
2022-12-23T10:18:51.680Z,9.04
2022-12-23T10:19:51.688Z,9
2022-12-23T10:20:51.174Z,8.9
2022-12-23T10:21:52.555Z,8.94
2022-12-23T10:22:51.632Z,8.95
2022-12-23T10:23:51.622Z,9.03
2022-12-23T10:24:51.703Z,8.97
2022-12-23T10:25:51.113Z,9.04
2022-12-23T10:26:51.584Z,9.17
2022-12-23T10:27:51.566Z,9.2
2022-12-23T10:28:51.548Z,9.2
2022-12-23T10:29:51.640Z,9.16
2022-12-23T10:31:44.375Z,9.27
2022-12-23T10:31:54.795Z,9.34
2022-12-23T10:32:54.671Z,9.42
2022-12-23T10:33:54.779Z,9.3
2022-12-23T10:34:54.749Z,9.47
2022-12-23T10:35:54.525Z,9.42
2022-12-23T10:36:54.777Z,9.45
2022-12-23T10:37:54.464Z,9.41
2022-12-23T10:38:54.867Z,9.45
2022-12-23T10:39:54.497Z,9.55
2022-12-23T10:40:54.203Z,9.45
2022-12-23T10:41:54.444Z,9.37
2022-12-23T10:42:54.715Z,9.32
2022-12-23T10:43:55.378Z,9.37
2022-12-23T10:44:54.494Z,9.39
2022-12-23T10:45:54.423Z,9.44
2022-12-23T10:46:54.336Z,9.3
2022-12-23T10:47:54.916Z,9.32
2022-12-23T10:48:54.715Z,9.29
2022-12-23T10:49:54.839Z,9.3
2022-12-23T10:50:54.426Z,9.35
2022-12-23T10:51:54.661Z,9.41
2022-12-23T10:52:54.299Z,9.5
2022-12-23T10:53:54.712Z,9.5
2022-12-23T10:54:54.288Z,9.52
2022-12-23T10:55:54.023Z,9.55
2022-12-23T10:56:54.336Z,9.53
2022-12-23T10:57:54.696Z,9.63
2022-12-23T10:58:54.221Z,9.66
2022-12-23T10:59:53.976Z,9.72
2022-12-23T11:00:54.936Z,9.72
2022-12-23T11:01:54.884Z,9.74
2022-12-23T11:02:54.708Z,9.81
2022-12-23T11:03:55.168Z,9.81
2022-12-23T11:04:55.056Z,9.78
2022-12-23T11:05:53.635Z,9.8
2022-12-23T11:07:45.607Z,9.71
2022-12-23T11:07:55.799Z,9.71
2022-12-23T11:08:55.531Z,9.63
2022-12-23T11:09:55.778Z,9.66
2022-12-23T11:10:55.766Z,9.7
2022-12-23T11:11:55.487Z,9.57
2022-12-23T11:12:55.569Z,9.59
2022-12-23T11:13:55.950Z,9.66
2022-12-23T11:14:55.959Z,9.55
2022-12-23T11:15:56.219Z,9.48
2022-12-23T11:16:56.223Z,9.56
2022-12-23T11:17:58.403Z,9.45
2022-12-23T11:18:55.655Z,9.5
2022-12-23T11:19:55.377Z,9.47
2022-12-23T11:20:55.625Z,9.48
2022-12-23T11:21:55.625Z,9.44
2022-12-23T11:22:55.721Z,9.47
2022-12-23T11:23:55.578Z,9.5
2022-12-23T11:24:55.824Z,9.47
2022-12-23T11:25:55.809Z,9.32
2022-12-23T11:26:55.280Z,9.27
2022-12-23T11:27:55.789Z,9.39
2022-12-23T11:28:55.770Z,9.29
2022-12-23T11:29:55.753Z,9.38
2022-12-23T11:31:01.038Z,9.39
2022-12-23T11:31:55.988Z,9.34
2022-12-23T11:32:55.549Z,9.37
2022-12-23T11:33:55.473Z,9.38
2022-12-23T11:34:55.851Z,9.29
2022-12-23T11:35:55.287Z,9.39
2022-12-23T11:37:07.956Z,9.39
2022-12-23T11:37:56.094Z,9.38
2022-12-23T11:38:56.093Z,9.34
2022-12-23T11:39:55.829Z,9.32
2022-12-23T11:40:57.180Z,9.39
2022-12-23T11:41:55.783Z,9.32
2022-12-23T11:43:00.053Z,9.29
2022-12-23T11:43:56.026Z,9.35
2022-12-23T11:44:56.816Z,9.41
2022-12-23T11:45:55.658Z,9.37
2022-12-23T11:46:56.088Z,9.29
2022-12-23T11:47:56.007Z,9.3
2022-12-23T11:48:59.445Z,9.29
2022-12-23T11:49:56.019Z,9.34
2022-12-23T11:50:55.943Z,9.35
2022-12-23T11:51:55.908Z,9.26
2022-12-23T11:52:55.921Z,9.21
2022-12-23T11:53:55.911Z,9.17
2022-12-23T11:54:59.151Z,9.2
2022-12-23T11:55:55.868Z,9.16
2022-12-23T11:56:56.125Z,9.16
2022-12-23T11:57:55.852Z,9.03
2022-12-23T11:58:56.055Z,9.16
2022-12-23T11:59:55.583Z,9
2022-12-23T12:01:00.394Z,9.05
2022-12-23T12:01:55.697Z,8.98
2022-12-23T12:02:56.242Z,9.09
2022-12-23T12:03:55.425Z,9.01
2022-12-23T12:04:55.805Z,9.01
2022-12-23T12:05:55.789Z,9.03
2022-12-23T12:07:00.950Z,9.05
2022-12-23T12:07:55.712Z,9.01
2022-12-23T12:08:55.650Z,8.95
2022-12-23T12:09:55.456Z,9.01
2022-12-23T12:10:55.424Z,9
2022-12-23T12:11:55.669Z,9.05
2022-12-23T12:12:59.608Z,9.04
2022-12-23T12:13:55.632Z,9.03
2022-12-23T12:14:55.384Z,8.94
2022-12-23T12:15:55.361Z,9.03
2022-12-23T12:16:55.542Z,9.14
2022-12-23T12:17:55.337Z,9.03
2022-12-23T12:19:00.560Z,9.01
2022-12-23T12:19:55.563Z,9.04
2022-12-23T12:20:55.673Z,9
2022-12-23T12:21:55.308Z,9.04
2022-12-23T12:22:55.554Z,9.05
2022-12-23T12:24:22.007Z,8.98
2022-12-23T12:24:55.526Z,9.01
2022-12-23T12:25:55.281Z,8.97
2022-12-23T12:26:55.398Z,9.08
2022-12-23T12:27:55.496Z,9.01
2022-12-23T12:28:55.229Z,8.94
2022-12-23T12:29:55.452Z,8.92
2022-12-23T12:30:55.403Z,8.9
2022-12-23T12:31:55.436Z,8.89
2022-12-23T12:32:55.164Z,8.92
2022-12-23T12:33:55.462Z,8.85
2022-12-23T12:34:55.180Z,8.79
2022-12-23T12:36:05.847Z,8.87
2022-12-23T12:36:55.681Z,8.76
2022-12-23T12:37:55.369Z,8.72
2022-12-23T12:38:55.094Z,8.68
2022-12-23T12:39:55.070Z,8.65
2022-12-23T12:40:55.046Z,8.72
2022-12-23T12:41:58.479Z,8.64
2022-12-23T12:42:55.034Z,8.61
2022-12-23T12:43:55.019Z,8.68
2022-12-23T12:44:55.013Z,8.77
2022-12-23T12:45:55.488Z,8.67
2022-12-23T12:46:55.222Z,8.64
2022-12-23T12:48:18.003Z,8.65
2022-12-23T12:48:54.947Z,8.65
2022-12-23T12:49:54.994Z,8.67
2022-12-23T12:50:55.198Z,8.64
2022-12-23T12:51:54.929Z,8.62
2022-12-23T12:52:54.935Z,8.53
2022-12-23T12:53:58.268Z,8.52
2022-12-23T12:54:55.145Z,8.6
2022-12-23T12:55:54.858Z,8.53
2022-12-23T12:56:54.842Z,8.5
2022-12-23T12:57:54.886Z,8.52
2022-12-23T12:58:55.078Z,8.43
2022-12-23T12:59:58.620Z,8.36
2022-12-23T13:00:54.976Z,8.4
2022-12-23T13:01:55.014Z,8.42
2022-12-23T13:02:55.216Z,8.42
2022-12-23T13:03:54.994Z,8.47
2022-12-23T13:04:54.746Z,8.44
2022-12-23T13:05:59.038Z,8.4
2022-12-23T13:06:54.735Z,8.43
2022-12-23T13:07:54.979Z,8.44
2022-12-23T13:08:55.004Z,8.47
2022-12-23T13:09:55.011Z,8.43
2022-12-23T13:10:54.938Z,8.49
2022-12-23T13:11:54.905Z,8.46
2022-12-23T13:12:54.625Z,8.52
2022-12-23T13:13:54.876Z,8.5
2022-12-23T13:14:54.625Z,8.52
2022-12-23T13:15:54.842Z,8.39
2022-12-23T13:16:55.050Z,8.4
2022-12-23T13:17:57.579Z,8.39
2022-12-23T13:18:54.836Z,8.36
2022-12-23T13:19:54.784Z,8.35
2022-12-23T13:20:54.762Z,8.34
2022-12-23T13:21:54.763Z,8.24
2022-12-23T13:22:54.478Z,8.34
2022-12-23T13:23:57.016Z,8.4
2022-12-23T13:24:54.982Z,8.21
2022-12-23T13:25:54.829Z,8.22
2022-12-23T13:26:54.566Z,8.21
2022-12-23T13:27:54.747Z,8.24
2022-12-23T13:28:54.643Z,8.24
2022-12-23T13:30:01.211Z,8.32
2022-12-23T13:30:55.147Z,8.34
2022-12-23T13:31:54.659Z,8.22
2022-12-23T13:32:54.923Z,8.34
2022-12-23T13:33:54.890Z,8.21
2022-12-23T13:34:54.828Z,8.29
2022-12-23T13:35:59.819Z,8.34
2022-12-23T13:36:54.777Z,8.22
2022-12-23T13:37:54.837Z,8.25